Main page
METAR-TAF:

METAR-TAF

Airports :

Kuwait International Airport

Kuwait City, Kuwait

latitude: 29-13N, longitude: 047-59E, elevation: 55 m

Current weather observation

The report was made 26 minutes ago, at 06:00 UTC
Calm wind
Temperature 16°C
Humidity 29%
Pressure 1023 hPa
Visibility 10 km or more
no clouds below 1500 m and no cumulonimbus

METAR: OKBK 220600Z 00000KT CAVOK 16/M02 Q1023 NOSIG

Time: 09:26 (06:26 UTC)

Forecast

The report was made 1 hour and 41 minutes ago, at 04:45 UTC
Forecast valid from 22 at 06 UTC to 23 at 12 UTC
Wind 8 kt from the West/Northwest
Visibility: 7000 m
Becoming
from 22 at 08 UTC to 22 at 10 UTC
Wind 3 kt from variable directions

TAF: OKBK 220445Z 2206/2312 30008KT 7000 NSC BECMG 2208/2210 VRB03KT

Weather observations and forecasts of more than 4000 airports (METAR and TAF reports).

The available stations are represented by yellow and red dots on the map.

Hover mouse over dot to see the name of the station.

Then click to see weather observations and forecasts.

To change the map : click on the green buttons with a black cross to zoom in, on the green button with a dash to zoom out, or on the green arrows for adjacent maps.


METAR-TAF: